createdAt,value
2023-04-03T00:01:46.015Z,81.62
2023-04-03T00:04:12.461Z,81.94
2023-04-03T00:06:38.934Z,82.18
2023-04-03T00:09:05.330Z,82.83
2023-04-03T00:11:31.682Z,82.90
2023-04-03T00:13:58.062Z,83.10
2023-04-03T00:16:24.502Z,82.66
2023-04-03T00:18:50.917Z,82.60
2023-04-03T00:21:17.633Z,83.11
2023-04-03T00:23:44.022Z,82.67
2023-04-03T00:26:10.530Z,82.77
2023-04-03T00:28:36.933Z,83.00
2023-04-03T00:31:03.920Z,83.53
2023-04-03T00:33:30.332Z,83.85
2023-04-03T00:35:56.735Z,84.12
2023-04-03T00:38:23.253Z,84.06
2023-04-03T00:40:50.801Z,83.98
2023-04-03T00:43:27.285Z,84.32
2023-04-03T00:45:56.099Z,84.42
2023-04-03T00:48:33.512Z,84.35
2023-04-03T00:51:01.345Z,84.17
2023-04-03T00:53:36.467Z,84.26
2023-04-03T00:56:06.737Z,84.14
2023-04-03T00:58:45.532Z,84.12
2023-04-03T01:01:16.956Z,84.17
2023-04-03T01:03:43.421Z,84.04
2023-04-03T01:06:09.934Z,83.54
2023-04-03T01:08:36.562Z,84.25
2023-04-03T01:11:03.027Z,83.39
2023-04-03T01:13:32.339Z,84.07
2023-04-03T01:16:04.453Z,83.78
2023-04-03T01:18:31.938Z,84.11
2023-04-03T01:21:36.826Z,83.65
2023-04-03T01:24:27.742Z,83.39
2023-04-03T01:26:54.222Z,83.53
2023-04-03T01:29:20.919Z,83.03
2023-04-03T01:31:53.350Z,83.35
2023-04-03T01:34:20.474Z,82.99
2023-04-03T01:36:46.953Z,82.86
2023-04-03T01:39:13.481Z,83.14
2023-04-03T01:41:39.975Z,83.02
2023-04-03T01:44:06.477Z,83.39
2023-04-03T01:46:32.999Z,82.84
2023-04-03T01:48:59.461Z,83.03
2023-04-03T01:51:26.066Z,82.92
2023-04-03T01:53:52.589Z,83.10
2023-04-03T01:56:18.928Z,82.80
2023-04-03T01:58:45.277Z,83.33
2023-04-03T02:01:11.663Z,83.04
2023-04-03T02:03:38.066Z,83.16
2023-04-03T02:06:04.617Z,83.05
2023-04-03T02:08:31.093Z,82.81
2023-04-03T02:10:57.774Z,82.94
2023-04-03T02:13:24.123Z,83.15
2023-04-03T02:15:50.517Z,82.92
2023-04-03T02:18:17.533Z,83.13
2023-04-03T02:20:43.931Z,83.43
2023-04-03T02:23:10.608Z,83.40
2023-04-03T02:25:38.553Z,83.28
2023-04-03T02:28:05.904Z,83.48
2023-04-03T02:30:32.250Z,84.03
2023-04-03T02:32:58.653Z,84.17
2023-04-03T02:35:25.368Z,83.98
2023-04-03T02:37:51.947Z,84.10
2023-04-03T02:40:18.474Z,84.60
2023-04-03T02:42:44.851Z,84.66
2023-04-03T02:45:11.580Z,85.02
2023-04-03T02:47:38.024Z,85.25
2023-04-03T02:50:04.715Z,85.86
2023-04-03T02:52:31.107Z,85.51
2023-04-03T02:54:57.426Z,85.54
2023-04-03T02:57:23.808Z,85.50
2023-04-03T02:59:50.285Z,85.52
2023-04-03T03:02:16.622Z,85.56
2023-04-03T03:04:43.711Z,85.74
2023-04-03T03:07:10.416Z,85.75
2023-04-03T03:09:37.099Z,85.90
2023-04-03T03:12:03.656Z,85.82
2023-04-03T03:14:30.132Z,85.48
2023-04-03T03:16:56.588Z,85.36
2023-04-03T03:19:22.983Z,85.16
2023-04-03T03:21:49.445Z,85.14
2023-04-03T03:24:16.821Z,84.99
2023-04-03T03:26:43.566Z,84.77
2023-04-03T03:29:10.028Z,84.83
2023-04-03T03:31:36.763Z,84.93
2023-04-03T03:34:03.167Z,84.67
2023-04-03T03:36:29.616Z,84.59
2023-04-03T03:38:56.068Z,84.39
2023-04-03T03:41:22.528Z,83.94
2023-04-03T03:43:48.894Z,83.89
2023-04-03T03:46:15.297Z,83.76
2023-04-03T03:48:41.798Z,83.09
2023-04-03T03:51:08.170Z,83.14
2023-04-03T03:53:34.908Z,83.07
2023-04-03T03:56:01.416Z,82.26
2023-04-03T03:58:27.836Z,82.13
2023-04-03T04:00:54.169Z,82.44
2023-04-03T04:03:20.681Z,82.44
2023-04-03T04:05:47.089Z,82.19
2023-04-03T04:08:13.473Z,82.31
2023-04-03T04:10:40.229Z,81.81
2023-04-03T04:13:06.678Z,81.85
2023-04-03T04:15:32.998Z,81.88
2023-04-03T04:17:59.401Z,81.97
2023-04-03T04:20:25.953Z,81.97
2023-04-03T04:22:52.460Z,81.87
2023-04-03T04:25:18.863Z,81.62
2023-04-03T04:27:45.279Z,81.35
2023-04-03T04:30:12.402Z,81.20
2023-04-03T04:32:38.796Z,81.34
2023-04-03T04:35:05.881Z,80.99
2023-04-03T04:37:32.417Z,81.09
2023-04-03T04:39:58.928Z,81.31
2023-04-03T04:42:25.569Z,81.28
2023-04-03T04:44:51.940Z,81.33
2023-04-03T04:47:18.498Z,80.91
2023-04-03T04:49:45.014Z,80.82
2023-04-03T04:52:11.479Z,80.71
2023-04-03T04:54:37.829Z,80.58
2023-04-03T04:57:04.324Z,81.21
2023-04-03T04:59:30.696Z,80.96
2023-04-03T05:01:57.106Z,81.21
2023-04-03T05:04:23.794Z,80.91
2023-04-03T05:06:50.222Z,81.65
2023-04-03T05:09:16.950Z,81.45
2023-04-03T05:11:43.984Z,81.32
2023-04-03T05:14:10.451Z,81.07
2023-04-03T05:16:37.217Z,81.19
2023-04-03T05:19:04.092Z,80.97
2023-04-03T05:21:33.416Z,81.27
2023-04-03T05:24:03.452Z,81.45
2023-04-03T05:26:31.621Z,81.10
2023-04-03T05:28:58.106Z,81.05
2023-04-03T05:31:24.827Z,80.96
2023-04-03T05:33:51.360Z,81.36
2023-04-03T05:36:17.698Z,80.95
2023-04-03T05:38:44.457Z,81.19
2023-04-03T05:41:12.229Z,81.21
2023-04-03T05:43:39.840Z,80.84
2023-04-03T05:46:13.773Z,81.06
2023-04-03T05:48:40.818Z,80.49
2023-04-03T05:51:10.709Z,80.64
2023-04-03T05:53:40.351Z,80.45
2023-04-03T05:56:06.815Z,80.26
2023-04-03T05:58:33.161Z,80.25
2023-04-03T06:00:59.524Z,80.07
2023-04-03T06:03:26.507Z,80.06
2023-04-03T06:05:53.204Z,80.14
2023-04-03T06:08:19.657Z,80.11
2023-04-03T06:10:46.588Z,79.45
2023-04-03T06:13:13.467Z,79.57
2023-04-03T06:15:41.312Z,78.85
2023-04-03T06:18:07.924Z,78.83
2023-04-03T06:20:34.692Z,78.38
2023-04-03T06:23:01.427Z,77.85
2023-04-03T06:25:27.777Z,78.13
2023-04-03T06:27:56.357Z,77.80
2023-04-03T06:30:22.842Z,77.79
2023-04-03T06:32:49.347Z,77.83
2023-04-03T06:35:16.102Z,76.66
2023-04-03T06:37:42.762Z,76.91
2023-04-03T06:40:20.881Z,75.66
2023-04-03T06:42:47.594Z,75.27
2023-04-03T06:45:13.996Z,74.64
2023-04-03T06:47:40.417Z,74.20
2023-04-03T06:50:07.914Z,73.89
2023-04-03T06:52:34.309Z,73.57
2023-04-03T06:55:01.318Z,74.89
2023-04-03T06:57:27.808Z,72.79
2023-04-03T06:59:54.310Z,72.56
2023-04-03T07:02:21.748Z,71.82
2023-04-03T07:04:48.592Z,71.35
2023-04-03T07:07:15.651Z,70.32
2023-04-03T07:09:45.202Z,71.30
2023-04-03T07:12:11.806Z,69.89
2023-04-03T07:14:38.175Z,69.76
2023-04-03T07:17:04.549Z,69.92
2023-04-03T07:19:31.488Z,68.99
2023-04-03T07:21:58.003Z,69.05
2023-04-03T07:24:24.397Z,68.63
2023-04-03T07:26:51.824Z,68.67
2023-04-03T07:29:18.282Z,68.88
2023-04-03T07:31:45.790Z,67.82
2023-04-03T07:34:12.490Z,67.48
2023-04-03T07:36:38.820Z,66.66
2023-04-03T07:39:05.236Z,66.75
2023-04-03T07:41:32.042Z,66.30
2023-04-03T07:43:58.526Z,66.68
2023-04-03T07:46:25.039Z,65.70
2023-04-03T07:48:51.531Z,66.10
2023-04-03T07:51:18.012Z,65.79
2023-04-03T07:53:44.477Z,64.92
2023-04-03T07:56:11.127Z,65.31
2023-04-03T07:58:37.970Z,64.64
2023-04-03T08:01:04.910Z,64.60
2023-04-03T08:03:31.421Z,63.53
2023-04-03T08:06:04.488Z,64.58
2023-04-03T08:08:31.697Z,63.57
2023-04-03T08:11:00.192Z,63.04
2023-04-03T08:13:27.140Z,63.51
2023-04-03T08:15:53.503Z,62.62
2023-04-03T08:18:22.651Z,62.20
2023-04-03T08:20:49.075Z,61.84
2023-04-03T08:23:17.273Z,61.54
2023-04-03T08:25:45.540Z,61.23
2023-04-03T08:28:13.175Z,60.24
2023-04-03T08:30:42.046Z,58.53
2023-04-03T08:33:08.943Z,57.84
2023-04-03T08:35:40.801Z,57.42
2023-04-03T08:38:08.251Z,57.71
2023-04-03T08:40:34.583Z,57.86
2023-04-03T08:43:05.357Z,57.74
2023-04-03T08:45:51.326Z,55.18
2023-04-03T08:48:36.298Z,54.99
2023-04-03T08:51:12.913Z,53.62
2023-04-03T08:53:42.476Z,53.57
2023-04-03T08:56:16.479Z,52.44
2023-04-03T08:58:49.490Z,52.57
2023-04-03T09:01:35.381Z,51.26
2023-04-03T09:04:03.341Z,50.30
2023-04-03T09:06:36.378Z,49.20
2023-04-03T09:09:31.181Z,48.68
2023-04-03T09:12:13.016Z,46.88
2023-04-03T09:14:44.294Z,47.95
2023-04-03T09:17:18.799Z,48.15
2023-04-03T09:20:12.158Z,47.33
2023-04-03T09:22:49.718Z,47.41
2023-04-03T09:25:34.073Z,47.67
2023-04-03T09:28:02.801Z,47.31
2023-04-03T09:30:29.558Z,47.02
2023-04-03T09:32:57.750Z,46.27
2023-04-03T09:35:45.006Z,45.65
2023-04-03T09:38:14.419Z,46.42
2023-04-03T09:40:46.605Z,45.48
2023-04-03T09:43:39.975Z,45.66
2023-04-03T09:46:24.683Z,45.42
2023-04-03T09:49:08.857Z,46.44
2023-04-03T09:51:36.680Z,45.89
2023-04-03T09:54:39.489Z,45.53
2023-04-03T09:57:13.073Z,45.27
2023-04-03T09:59:45.410Z,44.84
2023-04-03T10:02:35.563Z,45.73
2023-04-03T10:07:35.971Z,44.38
2023-04-03T10:10:35.130Z,43.51
2023-04-03T10:13:07.354Z,44.21
2023-04-03T10:15:45.183Z,42.80
2023-04-03T10:18:43.840Z,42.01
2023-04-03T10:21:27.914Z,40.88
2023-04-03T10:24:09.703Z,41.01
2023-04-03T10:26:50.416Z,40.38
2023-04-03T10:29:39.365Z,41.29
2023-04-03T10:32:46.596Z,41.23
2023-04-03T10:35:19.085Z,41.34
2023-04-03T10:38:14.690Z,40.66
2023-04-03T10:41:17.986Z,38.77
2023-04-03T10:44:08.094Z,39.25
2023-04-03T10:46:50.717Z,39.78
2023-04-03T10:49:59.418Z,40.38
2023-04-03T10:52:44.231Z,38.95
2023-04-03T10:55:22.972Z,38.85
2023-04-03T10:57:51.298Z,39.12
2023-04-03T11:00:22.357Z,39.18
2023-04-03T11:03:07.169Z,39.35
2023-04-03T11:05:50.277Z,38.83
2023-04-03T11:08:52.341Z,38.19
2023-04-03T11:11:23.570Z,38.38
2023-04-03T11:14:03.019Z,38.06
2023-04-03T11:16:43.276Z,38.38
2023-04-03T11:19:29.057Z,39.32
2023-04-03T11:22:01.784Z,39.00
2023-04-03T11:24:32.027Z,39.14
2023-04-03T11:27:04.596Z,39.40
2023-04-03T11:29:37.551Z,38.92
2023-04-03T11:32:30.519Z,38.90
2023-04-03T11:35:01.899Z,39.30
2023-04-03T11:37:36.706Z,39.33
2023-04-03T11:40:24.277Z,37.77
2023-04-03T11:42:55.937Z,37.64
2023-04-03T11:45:22.293Z,38.08
2023-04-03T11:47:51.844Z,37.61
2023-04-03T11:50:43.242Z,36.99
2023-04-03T11:53:12.977Z,36.69
2023-04-03T11:55:48.741Z,36.87
2023-04-03T11:58:32.565Z,36.48
2023-04-03T12:01:02.234Z,36.53
2023-04-03T12:03:32.987Z,37.54
2023-04-03T12:06:05.395Z,36.76
2023-04-03T12:08:35.226Z,36.84
2023-04-03T12:11:11.286Z,37.63
2023-04-03T12:13:49.923Z,37.08
2023-04-03T12:16:23.505Z,37.53
2023-04-03T12:18:49.988Z,37.62
2023-04-03T12:21:22.178Z,37.60
2023-04-03T12:24:03.907Z,36.96
2023-04-03T12:26:48.236Z,36.71
2023-04-03T12:29:21.564Z,35.28
2023-04-03T12:32:28.654Z,34.67
2023-04-03T12:35:16.346Z,36.03
2023-04-03T12:38:01.145Z,35.08
2023-04-03T12:40:42.815Z,34.25
2023-04-03T12:43:47.997Z,33.43
2023-04-03T12:46:21.902Z,33.47
2023-04-03T12:48:54.477Z,33.39
2023-04-03T12:51:29.176Z,33.04
2023-04-03T12:54:02.444Z,32.99
2023-04-03T12:56:33.413Z,32.21
2023-04-03T12:59:18.192Z,32.80
2023-04-03T13:01:54.066Z,33.05
2023-04-03T13:04:20.447Z,32.90
2023-04-03T13:06:46.945Z,32.28
2023-04-03T13:09:24.730Z,32.58
2023-04-03T13:11:57.407Z,32.95
2023-04-03T13:14:26.355Z,32.67
2023-04-03T13:17:03.708Z,33.10
2023-04-03T13:19:31.611Z,32.27
2023-04-03T13:22:03.783Z,31.99
2023-04-03T13:24:33.636Z,33.06
2023-04-03T13:27:00.364Z,32.56
2023-04-03T13:29:32.144Z,32.77
2023-04-03T13:32:02.233Z,32.16
2023-04-03T13:34:36.312Z,32.64
2023-04-03T13:37:05.325Z,32.23
2023-04-03T13:39:37.944Z,31.34
2023-04-03T13:42:25.255Z,30.95
2023-04-03T13:45:24.028Z,31.69
2023-04-03T13:47:53.809Z,31.16
2023-04-03T13:50:30.099Z,30.49
2023-04-03T13:53:03.438Z,30.75
2023-04-03T13:55:34.470Z,30.58
2023-04-03T13:58:22.902Z,30.35
2023-04-03T14:01:01.883Z,30.04
2023-04-03T14:03:34.679Z,29.50
2023-04-03T14:06:02.316Z,29.79
2023-04-03T14:08:41.832Z,30.30
2023-04-03T14:11:31.195Z,30.90
2023-04-03T14:14:06.068Z,30.45
2023-04-03T14:16:38.835Z,30.77
2023-04-03T14:19:05.163Z,30.56
2023-04-03T14:21:31.623Z,29.87
2023-04-03T14:23:58.110Z,30.04
2023-04-03T14:26:26.162Z,29.96
2023-04-03T14:28:55.034Z,30.01
2023-04-03T14:31:22.812Z,30.17
2023-04-03T14:33:49.394Z,29.81
2023-04-03T14:36:21.715Z,28.81
2023-04-03T14:38:50.019Z,28.46
2023-04-03T14:41:18.948Z,28.65
2023-04-03T14:43:46.687Z,29.23
2023-04-03T14:46:54.323Z,28.21
2023-04-03T14:49:25.672Z,28.61
2023-04-03T14:51:53.645Z,28.41
2023-04-03T14:54:26.244Z,27.81
2023-04-03T14:56:53.271Z,28.39
2023-04-03T14:59:21.095Z,28.31
2023-04-03T15:01:47.565Z,28.65
2023-04-03T15:04:16.005Z,28.47
2023-04-03T15:06:43.292Z,28.44
2023-04-03T15:09:22.534Z,28.59
2023-04-03T15:11:50.693Z,28.71
2023-04-03T15:14:29.498Z,28.55
2023-04-03T15:17:04.601Z,28.62
2023-04-03T15:19:36.738Z,28.56
2023-04-03T15:22:03.131Z,28.78
2023-04-03T15:24:29.567Z,28.80
2023-04-03T15:26:56.073Z,28.87
2023-04-03T15:29:22.550Z,29.03
2023-04-03T15:31:50.830Z,29.28
2023-04-03T15:34:18.094Z,29.96
2023-04-03T15:36:44.563Z,29.68
2023-04-03T15:39:11.063Z,29.88
2023-04-03T15:41:37.556Z,30.38
2023-04-03T15:44:03.949Z,30.96
2023-04-03T15:46:30.875Z,31.08
2023-04-03T15:48:57.326Z,31.39
2023-04-03T15:51:23.741Z,30.80
2023-04-03T15:53:50.419Z,31.07
2023-04-03T15:56:16.838Z,31.68
2023-04-03T15:58:43.294Z,31.23
2023-04-03T16:01:12.241Z,31.27
2023-04-03T16:03:46.470Z,31.65
2023-04-03T16:06:14.792Z,32.02
2023-04-03T16:08:41.464Z,32.18
2023-04-03T16:11:07.851Z,32.35
2023-04-03T16:13:35.625Z,32.05
2023-04-03T16:16:02.984Z,32.48
2023-04-03T16:18:30.263Z,32.76
2023-04-03T16:20:56.757Z,33.00
2023-04-03T16:23:23.624Z,33.39
2023-04-03T16:25:50.864Z,34.01
2023-04-03T16:28:18.705Z,34.82
2023-04-03T16:30:47.436Z,35.68
2023-04-03T16:33:14.291Z,36.35
2023-04-03T16:35:43.025Z,36.71
2023-04-03T16:38:09.549Z,36.82
2023-04-03T16:40:35.938Z,37.30
2023-04-03T16:43:03.546Z,37.36
2023-04-03T16:45:29.948Z,37.77
2023-04-03T16:47:56.673Z,38.44
2023-04-03T16:50:23.173Z,38.66
2023-04-03T16:52:49.963Z,38.80
2023-04-03T16:55:16.479Z,39.13
2023-04-03T16:57:42.976Z,39.08
2023-04-03T17:00:10.094Z,39.37
2023-04-03T17:02:36.456Z,39.26
2023-04-03T17:05:03.001Z,39.42
2023-04-03T17:07:29.344Z,39.28
2023-04-03T17:09:55.802Z,39.55
2023-04-03T17:12:22.853Z,39.55
2023-04-03T17:14:49.339Z,39.81
2023-04-03T17:17:18.900Z,39.80
2023-04-03T17:19:45.736Z,39.66
2023-04-03T17:22:12.350Z,40.35
2023-04-03T17:24:38.702Z,39.99
2023-04-03T17:27:05.351Z,40.05
2023-04-03T17:29:31.686Z,40.42
2023-04-03T17:31:58.063Z,40.20
2023-04-03T17:34:24.444Z,40.49
2023-04-03T17:36:51.150Z,40.92
2023-04-03T17:39:17.841Z,40.80
2023-04-03T17:41:45.891Z,40.58
2023-04-03T17:44:12.772Z,40.79
2023-04-03T17:46:39.361Z,40.90
2023-04-03T17:49:05.947Z,41.44
2023-04-03T17:51:35.497Z,41.19
2023-04-03T17:54:02.329Z,41.27
2023-04-03T17:56:28.835Z,41.51
2023-04-03T17:58:57.393Z,41.61
2023-04-03T18:01:23.806Z,42.10
2023-04-03T18:03:53.879Z,41.87
2023-04-03T18:06:23.008Z,42.54
2023-04-03T18:08:52.783Z,42.52
2023-04-03T18:11:22.177Z,42.70
2023-04-03T18:13:48.793Z,42.70
2023-04-03T18:16:15.188Z,42.90
2023-04-03T18:18:41.696Z,42.98
2023-04-03T18:21:10.881Z,42.87
2023-04-03T18:23:39.041Z,43.36
2023-04-03T18:26:07.274Z,43.15
2023-04-03T18:28:33.767Z,43.39
2023-04-03T18:31:01.420Z,43.53
2023-04-03T18:33:27.720Z,43.42
2023-04-03T18:35:54.243Z,43.36
2023-04-03T18:38:20.793Z,43.56
2023-04-03T18:40:47.487Z,43.75
2023-04-03T18:43:14.609Z,43.84
2023-04-03T18:45:41.389Z,43.95
2023-04-03T18:48:07.978Z,43.72
2023-04-03T18:50:34.918Z,44.18
2023-04-03T18:53:01.260Z,44.44
2023-04-03T18:55:27.734Z,44.41
2023-04-03T18:57:54.055Z,44.15
2023-04-03T19:00:20.630Z,44.30
2023-04-03T19:02:48.599Z,44.21
2023-04-03T19:05:17.037Z,44.54
2023-04-03T19:07:44.504Z,44.24
2023-04-03T19:10:17.385Z,44.42
2023-04-03T19:12:45.258Z,44.35
2023-04-03T19:15:16.144Z,44.58
2023-04-03T19:17:42.782Z,44.79
2023-04-03T19:20:10.936Z,45.27
2023-04-03T19:22:38.172Z,45.45
2023-04-03T19:25:06.046Z,45.40
2023-04-03T19:27:34.445Z,45.44
2023-04-03T19:30:00.949Z,45.10
2023-04-03T19:32:27.499Z,44.87
2023-04-03T19:34:53.853Z,45.34
2023-04-03T19:37:20.302Z,45.40
2023-04-03T19:39:46.644Z,45.64
2023-04-03T19:42:13.407Z,45.53
2023-04-03T19:44:39.999Z,45.91
2023-04-03T19:47:06.349Z,45.76
2023-04-03T19:49:32.712Z,46.06
2023-04-03T19:51:59.128Z,46.17
2023-04-03T19:54:25.536Z,45.96
2023-04-03T19:56:52.175Z,46.32
2023-04-03T19:59:18.671Z,46.16
2023-04-03T20:01:46.369Z,46.59
2023-04-03T20:04:13.778Z,46.61
2023-04-03T20:06:40.404Z,46.88
2023-04-03T20:09:06.828Z,46.77
2023-04-03T20:11:37.690Z,47.28
2023-04-03T20:14:04.310Z,47.46
2023-04-03T20:16:30.861Z,47.59
2023-04-03T20:18:57.487Z,47.81
2023-04-03T20:21:31.943Z,47.89
2023-04-03T20:23:59.839Z,48.07
2023-04-03T20:26:28.681Z,48.14
2023-04-03T20:28:57.510Z,47.95
2023-04-03T20:31:25.816Z,48.20
2023-04-03T20:33:52.384Z,48.50
2023-04-03T20:36:20.084Z,48.55
2023-04-03T20:38:48.013Z,48.68
2023-04-03T20:41:15.665Z,48.72
2023-04-03T20:43:43.027Z,48.89
2023-04-03T20:46:10.886Z,49.14
2023-04-03T20:48:37.545Z,48.82
2023-04-03T20:51:12.398Z,49.34
2023-04-03T20:53:39.617Z,49.53
2023-04-03T20:56:08.211Z,49.61
2023-04-03T20:58:38.615Z,49.18
2023-04-03T21:01:17.371Z,49.64
2023-04-03T21:03:46.031Z,49.60
2023-04-03T21:06:50.696Z,49.84
2023-04-03T21:09:56.408Z,49.79
2023-04-03T21:13:00.708Z,49.90
2023-04-03T21:15:49.121Z,50.20
2023-04-03T21:18:42.065Z,50.02
2023-04-03T21:21:22.182Z,50.45
2023-04-03T21:23:49.679Z,50.39
2023-04-03T21:26:17.475Z,50.57
2023-04-03T21:28:43.928Z,50.28
2023-04-03T21:31:15.223Z,50.49
2023-04-03T21:33:42.467Z,50.34
2023-04-03T21:36:10.254Z,50.07
2023-04-03T21:38:36.780Z,50.57
2023-04-03T21:41:03.487Z,50.76
2023-04-03T21:43:30.053Z,50.83
2023-04-03T21:45:58.434Z,50.82
2023-04-03T21:48:28.611Z,51.07
2023-04-03T21:51:02.313Z,51.12
2023-04-03T21:53:30.296Z,51.04
2023-04-03T21:55:57.552Z,51.22
2023-04-03T21:58:34.000Z,51.57
2023-04-03T22:01:10.975Z,51.55
2023-04-03T22:03:37.997Z,51.81
2023-04-03T22:06:05.185Z,52.07
2023-04-03T22:08:31.648Z,51.56
2023-04-03T22:11:03.379Z,51.53
2023-04-03T22:13:30.812Z,51.78
2023-04-03T22:15:59.249Z,52.17
2023-04-03T22:18:26.241Z,52.02
2023-04-03T22:20:52.657Z,52.54
2023-04-03T22:23:19.353Z,52.45
2023-04-03T22:26:05.720Z,52.60
2023-04-03T22:28:34.607Z,52.57
2023-04-03T22:31:08.271Z,52.90
2023-04-03T22:33:38.628Z,52.86
2023-04-03T22:36:06.723Z,53.40
2023-04-03T22:38:33.344Z,53.39
2023-04-03T22:41:04.391Z,53.35
2023-04-03T22:43:32.990Z,53.91
2023-04-03T22:46:04.470Z,54.39
2023-04-03T22:48:31.165Z,54.29
2023-04-03T22:50:57.658Z,54.56
2023-04-03T22:53:24.009Z,55.67
2023-04-03T22:55:59.080Z,55.68
2023-04-03T22:58:26.852Z,55.32
2023-04-03T23:01:04.514Z,56.54
2023-04-03T23:03:31.438Z,56.44
2023-04-03T23:05:58.366Z,56.39
2023-04-03T23:08:24.763Z,56.96
2023-04-03T23:10:55.592Z,56.92
2023-04-03T23:13:22.492Z,57.78
2023-04-03T23:16:00.381Z,58.16
2023-04-03T23:18:29.459Z,58.36
2023-04-03T23:20:56.886Z,58.51
2023-04-03T23:23:24.237Z,58.67
2023-04-03T23:25:59.162Z,59.02
2023-04-03T23:28:26.558Z,59.04
2023-04-03T23:31:01.643Z,59.59
2023-04-03T23:33:29.040Z,60.69
2023-04-03T23:35:55.488Z,61.06
2023-04-03T23:38:21.988Z,60.90
2023-04-03T23:40:48.327Z,61.22
2023-04-03T23:43:14.691Z,61.22
2023-04-03T23:45:41.790Z,61.47
2023-04-03T23:48:08.994Z,61.73
2023-04-03T23:50:35.484Z,62.69
2023-04-03T23:53:01.948Z,62.82
2023-04-03T23:55:28.389Z,63.09
2023-04-03T23:57:54.826Z,63.75
